Time;durP1;ratioP1;P1;durP2;ratioP2;P2;SDS_P1;SDS_P2;PMS_P1;PMS_P2;Temp;Humidity;BMP_temperature;BMP_pressure;BME280_temperature;BME280_humidity;BME280_pressure;Samples;Min_cycle;Max_cycle;Signal;HPM_P1;HPM_P2
2021/06/17 00:00:47;;;;;;;1.15;0.85;;;22.20;81.30;;;;;;4431315;32;20747;-57
2021/06/17 00:03:12;;;;;;;0.68;0.68;;;22.20;81.30;;;;;;4446161;32;20115;-59
2021/06/17 00:05:38;;;;;;;1.37;0.62;;;22.20;81.90;;;;;;4446877;32;20116;-58
2021/06/17 00:08:06;;;;;;;0.52;0.50;;;22.20;82.00;;;;;;4445796;32;20077;-56
2021/06/17 00:10:37;;;;;;;1.40;1.02;;;22.20;82.60;;;;;;4419884;32;20065;-55
2021/06/17 00:13:10;;;;;;;1.23;0.68;;;22.10;82.60;;;;;;4432165;32;20068;-58
2021/06/17 00:15:37;;;;;;;0.35;0.35;;;22.10;83.20;;;;;;4445408;32;20124;-57
2021/06/17 00:18:04;;;;;;;0.40;0.40;;;22.10;83.40;;;;;;4431711;32;20053;-57
2021/06/17 00:20:32;;;;;;;4.65;0.85;;;22.10;83.90;;;;;;4432956;32;20407;-53
2021/06/17 00:22:58;;;;;;;1.65;0.90;;;22.00;84.00;;;;;;4446580;32;20518;-57
2021/06/17 00:25:24;;;;;;;0.45;0.45;;;22.00;84.20;;;;;;4445695;32;20070;-56
2021/06/17 00:27:50;;;;;;;0.52;0.52;;;21.90;84.70;;;;;;4444534;32;20061;-55
2021/06/17 00:30:17;;;;;;;0.25;0.25;;;22.00;84.80;;;;;;4435141;32;20068;-57
2021/06/17 00:32:43;;;;;;;0.95;0.52;;;22.10;84.80;;;;;;4431924;32;20057;-58
2021/06/17 00:35:09;;;;;;;0.28;0.28;;;22.00;86.00;;;;;;4439870;32;20086;-55
2021/06/17 00:37:36;;;;;;;0.50;0.50;;;22.00;85.30;;;;;;4443611;32;20056;-56
2021/06/17 00:40:02;;;;;;;0.40;0.40;;;22.00;85.40;;;;;;4445324;32;20077;-58
2021/06/17 00:42:28;;;;;;;0.52;0.50;;;22.00;85.70;;;;;;4431898;32;20605;-58
2021/06/17 00:44:54;;;;;;;4.53;1.37;;;21.90;86.10;;;;;;4445625;32;20077;-58
2021/06/17 00:47:19;;;;;;;0.35;0.35;;;21.90;86.60;;;;;;4446003;32;20057;-55
2021/06/17 00:49:45;;;;;;;0.32;0.32;;;21.90;86.80;;;;;;4445681;32;20079;-55
2021/06/17 00:52:11;;;;;;;0.40;0.40;;;21.90;87.20;;;;;;4445831;32;20073;-55
2021/06/17 00:54:36;;;;;;;0.40;0.40;;;21.80;87.50;;;;;;4431087;32;20200;-58
2021/06/17 00:57:05;;;;;;;0.73;0.45;;;21.90;87.60;;;;;;4444533;32;20072;-59
2021/06/17 00:59:31;;;;;;;10.63;1.45;;;21.80;87.90;;;;;;4445691;32;20068;-58
2021/06/17 01:01:57;;;;;;;0.25;0.25;;;21.80;88.20;;;;;;4444428;32;20517;-55
2021/06/17 01:04:25;;;;;;;1.00;0.70;;;21.80;88.30;;;;;;4445235;32;20092;-56
2021/06/17 01:06:51;;;;;;;0.20;0.20;;;21.80;88.50;;;;;;4444531;32;20068;-58
2021/06/17 01:09:41;;;;;;;0.50;0.45;;;21.70;89.10;;;;;;4443544;32;20060;-57
2021/06/17 01:12:27;;;;;;;0.50;0.50;;;21.70;89.50;;;;;;4444351;32;20062;-55
2021/06/17 01:14:59;;;;;;;2.47;0.43;;;21.60;89.90;;;;;;4443808;32;20150;-55
2021/06/17 01:17:26;;;;;;;1.55;1.10;;;21.50;90.10;;;;;;4443291;32;20124;-55
2021/06/17 01:20:14;;;;;;;0.77;0.65;;;21.50;90.30;;;;;;4444686;32;20060;-55
2021/06/17 01:23:01;;;;;;;0.43;0.43;;;21.50;90.50;;;;;;4445169;32;20077;-55
2021/06/17 01:26:01;;;;;;;1.20;0.70;;;21.60;90.50;;;;;;4443136;32;20069;-57
2021/06/17 01:28:27;;;;;;;0.52;0.50;;;21.60;90.70;;;;;;4442874;32;20061;-58
2021/06/17 01:30:57;;;;;;;2.28;0.98;;;21.60;90.80;;;;;;4428921;32;20073;-58
2021/06/17 01:33:25;;;;;;;1.15;0.80;;;21.50;90.90;;;;;;4443375;32;20123;-58
2021/06/17 01:35:55;;;;;;;7.53;1.35;;;21.50;91.20;;;;;;4428569;32;20069;-55
2021/06/17 01:38:23;;;;;;;0.50;0.50;;;21.50;91.40;;;;;;4429343;32;20086;-58
2021/06/17 01:40:50;;;;;;;0.35;0.35;;;21.40;91.60;;;;;;4428859;32;20514;-55
2021/06/17 01:43:18;;;;;;;0.60;0.55;;;21.40;91.80;;;;;;4428507;32;20069;-57
2021/06/17 01:45:46;;;;;;;0.30;0.30;;;21.40;92.30;;;;;;4427858;32;20073;-56
2021/06/17 01:48:12;;;;;;;0.50;0.50;;;21.40;92.20;;;;;;4427329;32;20078;-57
2021/06/17 01:50:38;;;;;;;0.45;0.45;;;21.30;92.40;;;;;;4429205;32;20069;-57
2021/06/17 01:53:05;;;;;;;0.30;0.30;;;21.30;92.50;;;;;;4429603;32;20419;-56
2021/06/17 01:55:31;;;;;;;0.30;0.30;;;21.30;92.60;;;;;;4428646;32;20344;-56
2021/06/17 01:58:02;;;;;;;0.65;0.65;;;21.30;93.00;;;;;;4428706;32;20116;-57
2021/06/17 02:00:29;;;;;;;1.50;1.02;;;21.20;92.90;;;;;;4429945;32;20119;-56
2021/06/17 02:02:56;;;;;;;1.17;0.60;;;21.30;93.00;;;;;;4429178;32;20172;-55
2021/06/17 02:05:23;;;;;;;0.75;0.75;;;21.20;93.20;;;;;;4429890;32;20437;-58
2021/06/17 02:07:50;;;;;;;0.95;0.82;;;21.20;93.30;;;;;;4430037;32;20505;-56
2021/06/17 02:10:18;;;;;;;0.77;0.70;;;21.30;93.40;;;;;;4428786;32;20117;-56
2021/06/17 02:12:46;;;;;;;0.90;0.85;;;21.20;93.60;;;;;;4428084;32;20077;-56
2021/06/17 02:15:12;;;;;;;0.45;0.45;;;21.20;93.70;;;;;;4431328;32;20065;-57
2021/06/17 02:17:41;;;;;;;0.70;0.70;;;21.20;93.80;;;;;;4432328;32;20560;-56
2021/06/17 02:20:07;;;;;;;0.60;0.60;;;21.10;94.00;;;;;;4431914;32;20064;-58
2021/06/17 02:22:35;;;;;;;1.62;0.98;;;21.00;94.30;;;;;;4431249;32;20077;-57
2021/06/17 02:25:01;;;;;;;0.55;0.55;;;21.00;94.50;;;;;;4430849;32;20078;-55
2021/06/17 02:27:31;;;;;;;1.33;0.90;;;21.00;94.70;;;;;;4430820;32;20444;-56
2021/06/17 02:30:06;;;;;;;0.60;0.57;;;20.90;95.00;;;;;;4440992;32;20201;-54
2021/06/17 02:32:38;;;;;;;0.50;0.43;;;20.90;95.20;;;;;;4436384;32;20065;-55
2021/06/17 02:35:06;;;;;;;2.40;0.85;;;20.90;95.40;;;;;;4441348;32;20120;-53
2021/06/17 02:37:32;;;;;;;0.62;0.62;;;20.90;95.60;;;;;;4445199;32;20069;-54
2021/06/17 02:39:58;;;;;;;0.70;0.70;;;20.90;95.80;;;;;;4432937;32;20134;-57
2021/06/17 02:42:26;;;;;;;0.68;0.68;;;20.90;96.10;;;;;;4445565;32;20085;-56
2021/06/17 02:44:52;;;;;;;0.98;0.80;;;20.90;96.30;;;;;;4432362;32;20064;-56
2021/06/17 02:47:18;;;;;;;1.45;0.77;;;20.90;96.40;;;;;;4446822;32;20483;-58
2021/06/17 02:49:44;;;;;;;0.50;0.50;;;20.80;96.60;;;;;;4445777;32;20204;-55
2021/06/17 02:52:10;;;;;;;1.15;0.70;;;20.80;97.00;;;;;;4445069;32;20060;-57
2021/06/17 02:54:36;;;;;;;0.70;0.70;;;20.80;97.20;;;;;;4446765;32;20069;-57
2021/06/17 02:57:09;;;;;;;0.65;0.60;;;20.80;97.30;;;;;;4446769;32;20077;-56
2021/06/17 02:59:44;;;;;;;0.62;0.55;;;20.80;97.50;;;;;;4446703;32;20149;-57
2021/06/17 03:02:15;;;;;;;1.20;0.52;;;20.80;97.80;;;;;;4445896;32;20422;-57
2021/06/17 03:04:47;;;;;;;0.55;0.50;;;20.80;98.00;;;;;;4445860;32;20081;-57
2021/06/17 03:07:21;;;;;;;0.47;0.47;;;20.80;98.10;;;;;;4447123;32;20070;-57
2021/06/17 03:09:50;;;;;;;0.60;0.60;;;20.80;98.40;;;;;;4445226;32;20082;-58
2021/06/17 03:12:20;;;;;;;1.08;0.80;;;20.70;98.70;;;;;;4446237;32;20587;-59
2021/06/17 03:14:49;;;;;;;2.10;0.60;;;20.80;98.80;;;;;;4446460;32;20077;-58
2021/06/17 03:17:17;;;;;;;0.40;0.40;;;20.80;99.00;;;;;;4446728;32;20078;-56
2021/06/17 03:19:46;;;;;;;0.60;0.60;;;20.80;99.70;;;;;;4446883;32;20182;-58
2021/06/17 03:22:14;;;;;;;0.75;0.65;;;20.70;99.70;;;;;;4445544;32;20061;-54
2021/06/17 03:24:43;;;;;;;1.00;0.90;;;20.70;99.90;;;;;;4445619;32;20065;-57
2021/06/17 03:27:09;;;;;;;2.90;0.88;;;20.70;99.90;;;;;;4445640;32;20057;-57
2021/06/17 03:29:43;;;;;;;0.70;0.62;;;20.70;99.90;;;;;;4437793;32;20461;-54
2021/06/17 03:32:10;;;;;;;0.82;0.70;;;20.70;99.90;;;;;;4436917;32;20057;-54
2021/06/17 03:34:37;;;;;;;0.60;0.60;;;20.80;99.90;;;;;;4439844;32;20408;-53
2021/06/17 03:37:03;;;;;;;0.50;0.50;;;20.80;99.90;;;;;;4430344;32;20564;-57
2021/06/17 03:39:29;;;;;;;0.75;0.75;;;20.70;99.90;;;;;;4429398;32;20068;-55
2021/06/17 03:41:56;;;;;;;1.23;0.70;;;20.80;99.90;;;;;;4429393;32;20128;-56
2021/06/17 03:44:23;;;;;;;0.95;0.80;;;20.80;99.90;;;;;;4430009;32;20080;-58
2021/06/17 03:46:49;;;;;;;1.40;1.30;;;20.80;99.90;;;;;;4430305;32;20078;-55
2021/06/17 03:49:16;;;;;;;1.98;0.88;;;20.80;99.90;;;;;;4431143;32;20074;-57
2021/06/17 03:51:42;;;;;;;1.30;0.57;;;20.80;99.90;;;;;;4429919;32;20068;-57
2021/06/17 03:54:08;;;;;;;0.95;0.90;;;20.80;99.90;;;;;;4430000;32;20444;-57
2021/06/17 03:56:34;;;;;;;0.93;0.70;;;20.70;99.90;;;;;;4430327;32;20061;-58
2021/06/17 03:59:01;;;;;;;3.33;0.70;;;20.80;99.90;;;;;;4428973;32;20074;-54
2021/06/17 04:01:28;;;;;;;0.50;0.50;;;20.80;99.90;;;;;;4428154;32;20068;-54
2021/06/17 04:03:54;;;;;;;1.40;0.77;;;20.80;99.90;;;;;;4431218;32;20069;-58
2021/06/17 04:06:21;;;;;;;0.55;0.55;;;20.80;99.90;;;;;;4430815;32;20595;-56
2021/06/17 04:08:51;;;;;;;0.80;0.60;;;20.90;99.90;;;;;;4429744;32;20431;-57
2021/06/17 04:11:19;;;;;;;0.60;0.60;;;20.90;99.90;;;;;;4431035;32;20112;-54
2021/06/17 04:13:45;;;;;;;0.60;0.50;;;20.90;99.90;;;;;;4427834;32;20112;-57
2021/06/17 04:16:16;;;;;;;0.80;0.68;;;21.00;99.90;;;;;;4429488;32;20598;-54
2021/06/17 04:18:44;;;;;;;0.75;0.75;;;21.00;99.90;;;;;;4427963;32;20392;-54
2021/06/17 04:21:12;;;;;;;0.55;0.55;;;21.00;99.90;;;;;;4423880;32;20086;-57
2021/06/17 04:23:39;;;;;;;0.50;0.50;;;21.00;99.90;;;;;;4448990;32;20073;-58
2021/06/17 04:26:05;;;;;;;0.70;0.70;;;21.00;99.90;;;;;;4459516;32;20065;-54
2021/06/17 04:28:32;;;;;;;4.03;0.98;;;21.00;99.90;;;;;;4450012;32;20466;-57
2021/06/17 04:30:59;;;;;;;4.65;0.95;;;21.10;99.90;;;;;;4442715;32;20120;-57
2021/06/17 04:33:25;;;;;;;0.98;0.75;;;21.10;99.90;;;;;;4429915;32;20058;-57
2021/06/17 04:35:54;;;;;;;1.00;0.93;;;21.10;99.90;;;;;;4429203;32;20081;-57
2021/06/17 04:38:20;;;;;;;1.58;0.77;;;21.20;99.90;;;;;;4443870;32;20509;-54
2021/06/17 04:40:46;;;;;;;1.48;1.17;;;21.20;99.90;;;;;;4434968;32;20119;-57
2021/06/17 04:43:21;;;;;;;0.65;0.65;;;21.30;99.90;;;;;;4428778;32;20078;-54
2021/06/17 04:45:48;;;;;;;1.85;0.77;;;21.30;99.90;;;;;;4429318;32;20069;-56
2021/06/17 04:48:15;;;;;;;1.27;0.90;;;21.30;99.90;;;;;;4402421;32;20068;-58
2021/06/17 04:50:41;;;;;;;2.53;0.93;;;21.40;99.90;;;;;;4427250;32;20082;-54
2021/06/17 04:53:09;;;;;;;1.00;0.90;;;21.50;99.90;;;;;;4433008;32;20089;-56
2021/06/17 04:55:41;;;;;;;0.43;0.43;;;21.50;99.90;;;;;;4442203;32;20065;-54
2021/06/17 04:58:07;;;;;;;1.45;1.17;;;21.60;99.90;;;;;;4443829;32;20092;-57
2021/06/17 05:00:32;;;;;;;1.05;0.68;;;21.70;99.90;;;;;;4440594;32;20120;-57
2021/06/17 05:02:57;;;;;;;0.75;0.73;;;21.70;99.90;;;;;;4429991;32;20534;-54
2021/06/17 05:05:23;;;;;;;0.30;0.30;;;21.70;99.90;;;;;;4434611;32;20088;-54
2021/06/17 05:10:47;;;;;;;2.03;1.17;;;21.80;99.90;;;;;;4431597;32;20073;-55
2021/06/17 05:13:17;;;;;;;0.82;0.75;;;21.90;99.90;;;;;;4431212;32;20097;-58
2021/06/17 05:15:43;;;;;;;0.70;0.65;;;21.90;99.90;;;;;;4415078;32;20388;-54
2021/06/17 05:18:09;;;;;;;0.70;0.70;;;21.90;99.90;;;;;;4421680;32;20056;-55
2021/06/17 05:20:34;;;;;;;1.10;0.77;;;21.90;99.90;;;;;;4439451;32;20116;-56
2021/06/17 05:23:00;;;;;;;0.98;0.55;;;21.90;99.90;;;;;;4441190;32;20593;-57
2021/06/17 05:25:26;;;;;;;0.60;0.60;;;22.00;99.90;;;;;;4432588;32;20077;-57
2021/06/17 05:27:51;;;;;;;0.60;0.60;;;22.10;99.90;;;;;;4423581;32;20084;-57
2021/06/17 05:30:18;;;;;;;0.65;0.65;;;22.10;99.90;;;;;;4430057;32;20074;-56
2021/06/17 05:32:43;;;;;;;0.80;0.80;;;22.20;99.90;;;;;;4420570;32;20497;-57
2021/06/17 05:35:09;;;;;;;0.65;0.60;;;22.30;99.90;;;;;;4437215;32;20123;-56
2021/06/17 05:37:35;;;;;;;0.65;0.60;;;22.50;99.90;;;;;;4438856;32;20492;-57
2021/06/17 05:40:00;;;;;;;0.90;0.85;;;22.50;99.90;;;;;;4433334;32;20085;-57
2021/06/17 05:42:26;;;;;;;1.27;1.17;;;22.60;99.90;;;;;;4441446;32;20476;-56
2021/06/17 05:44:53;;;;;;;0.60;0.60;;;22.70;99.90;;;;;;4433890;32;20106;-57
2021/06/17 05:47:19;;;;;;;0.55;0.55;;;22.70;99.90;;;;;;4435806;32;20109;-57
2021/06/17 05:49:45;;;;;;;1.65;0.93;;;22.80;99.90;;;;;;4433025;32;20065;-59
2021/06/17 05:52:10;;;;;;;2.15;1.27;;;22.90;99.90;;;;;;4436114;32;20073;-56
2021/06/17 05:54:37;;;;;;;2.37;1.02;;;23.00;99.90;;;;;;4433386;32;20065;-57
2021/06/17 05:57:03;;;;;;;1.87;1.08;;;23.00;99.90;;;;;;4435602;32;20077;-57
2021/06/17 05:59:28;;;;;;;0.65;0.65;;;23.10;99.90;;;;;;4431680;32;20373;-57
2021/06/17 06:01:53;;;;;;;0.47;0.47;;;23.20;99.90;;;;;;4439315;32;20065;-57
2021/06/17 06:04:19;;;;;;;0.85;0.85;;;23.20;99.90;;;;;;4439397;32;20073;-55
2021/06/17 06:06:44;;;;;;;0.43;0.43;;;23.30;99.90;;;;;;4441038;32;20084;-57
2021/06/17 06:09:10;;;;;;;0.50;0.50;;;23.40;99.90;;;;;;4447267;32;20518;-56
2021/06/17 06:11:36;;;;;;;0.93;0.70;;;23.50;99.90;;;;;;4441560;32;20084;-58
2021/06/17 06:14:02;;;;;;;5.28;1.33;;;23.60;99.90;;;;;;4429413;32;20088;-57
2021/06/17 06:16:28;;;;;;;5.68;2.28;;;23.50;99.90;;;;;;4429631;32;20204;-57
2021/06/17 06:18:54;;;;;;;0.43;0.43;;;23.60;99.90;;;;;;4434308;32;20309;-58
2021/06/17 06:21:20;;;;;;;2.58;1.37;;;23.60;99.90;;;;;;4436272;32;20089;-54
2021/06/17 06:23:45;;;;;;;3.35;0.60;;;23.70;99.90;;;;;;4436019;32;20081;-56
2021/06/17 06:26:11;;;;;;;4.72;1.62;;;23.70;99.90;;;;;;4438425;32;20485;-57
2021/06/17 06:28:36;;;;;;;1.02;0.80;;;23.90;99.90;;;;;;4433634;32;20061;-57
2021/06/17 06:31:02;;;;;;;0.75;0.75;;;23.90;99.80;;;;;;4436038;32;20138;-58
2021/06/17 06:33:27;;;;;;;1.40;1.00;;;24.00;99.90;;;;;;4439289;32;20061;-56
2021/06/17 06:35:53;;;;;;;0.73;0.73;;;24.00;99.90;;;;;;4436068;32;20521;-57
2021/06/17 06:38:19;;;;;;;12.93;0.85;;;24.10;99.80;;;;;;4437137;32;20057;-57
2021/06/17 06:40:45;;;;;;;0.70;0.70;;;24.20;99.50;;;;;;4438119;32;20090;-58
2021/06/17 06:43:12;;;;;;;0.80;0.73;;;24.30;99.00;;;;;;4444436;32;20071;-57
2021/06/17 06:45:38;;;;;;;0.90;0.80;;;24.40;98.90;;;;;;4431650;32;20125;-57
2021/06/17 06:48:04;;;;;;;0.50;0.50;;;24.50;98.70;;;;;;4436495;32;20521;-57
2021/06/17 06:50:30;;;;;;;0.77;0.70;;;24.50;98.70;;;;;;4439713;32;20111;-55
2021/06/17 06:52:55;;;;;;;1.52;0.77;;;24.60;98.80;;;;;;4435840;32;20064;-54
2021/06/17 06:55:22;;;;;;;2.17;0.80;;;24.70;98.70;;;;;;4442302;32;20528;-57
2021/06/17 06:57:48;;;;;;;0.85;0.70;;;24.70;98.50;;;;;;4437728;32;20093;-57
2021/06/17 07:00:15;;;;;;;1.52;1.10;;;24.80;98.40;;;;;;4434621;32;20101;-54
2021/06/17 07:02:41;;;;;;;0.52;0.52;;;24.80;98.20;;;;;;4427328;32;20077;-57
2021/06/17 07:05:07;;;;;;;9.63;1.85;;;24.90;98.20;;;;;;4435162;32;20065;-58
2021/06/17 07:07:32;;;;;;;0.60;0.60;;;25.00;97.70;;;;;;4442807;32;20147;-57
2021/06/17 07:09:58;;;;;;;2.03;1.12;;;25.10;97.40;;;;;;4437057;32;20080;-57
2021/06/17 07:12:24;;;;;;;0.50;0.50;;;25.10;97.40;;;;;;4432023;32;20630;-58
2021/06/17 07:14:49;;;;;;;1.02;0.70;;;25.10;97.00;;;;;;4418173;32;20096;-57
2021/06/17 07:17:15;;;;;;;0.52;0.52;;;25.20;97.00;;;;;;4433132;32;20085;-58
2021/06/17 07:19:41;;;;;;;1.23;0.88;;;25.30;96.90;;;;;;4432580;32;20114;-58
2021/06/17 07:22:07;;;;;;;0.45;0.45;;;25.40;96.70;;;;;;4430918;32;20097;-58
2021/06/17 07:24:32;;;;;;;0.52;0.50;;;25.50;96.50;;;;;;4432328;32;20091;-58
2021/06/17 07:26:58;;;;;;;0.30;0.30;;;25.60;96.40;;;;;;4433356;32;20065;-56
2021/06/17 07:29:23;;;;;;;1.87;1.25;;;25.80;96.30;;;;;;4432488;32;20108;-59
2021/06/17 07:31:49;;;;;;;0.80;0.80;;;25.90;95.90;;;;;;4432414;32;20092;-56
2021/06/17 07:34:15;;;;;;;1.15;0.55;;;26.00;95.30;;;;;;4434273;32;20536;-55
2021/06/17 07:36:41;;;;;;;3.28;0.70;;;26.20;95.40;;;;;;4442811;32;20076;-58
2021/06/17 07:39:08;;;;;;;7.75;0.50;;;26.30;95.00;;;;;;4435195;32;20134;-58
2021/06/17 07:41:35;;;;;;;11.23;2.10;;;26.50;94.50;;;;;;4436725;32;20563;-57
2021/06/17 07:44:02;;;;;;;0.73;0.73;;;26.60;94.60;;;;;;4437103;32;20143;-58
2021/06/17 07:46:27;;;;;;;0.73;0.70;;;26.70;93.80;;;;;;4433928;32;20074;-58
2021/06/17 07:48:53;;;;;;;1.23;1.02;;;26.80;93.30;;;;;;4424645;32;20506;-55
2021/06/17 07:51:19;;;;;;;1.35;1.12;;;26.80;93.10;;;;;;4432834;32;20084;-54
2021/06/17 07:53:44;;;;;;;1.75;1.15;;;27.00;93.00;;;;;;4437896;32;20502;-58
2021/06/17 07:56:10;;;;;;;0.70;0.70;;;27.10;93.10;;;;;;4431331;32;20069;-57
2021/06/17 07:58:36;;;;;;;1.48;0.55;;;27.20;92.30;;;;;;4439724;32;20190;-57
2021/06/17 08:01:01;;;;;;;1.75;1.20;;;27.30;92.10;;;;;;4434228;32;20061;-58
2021/06/17 08:03:27;;;;;;;0.40;0.40;;;27.40;91.80;;;;;;4417848;32;20595;-55
2021/06/17 08:05:54;;;;;;;0.88;0.88;;;27.60;91.60;;;;;;4433790;32;20072;-58
2021/06/17 08:08:19;;;;;;;2.28;0.82;;;27.60;91.30;;;;;;4432754;32;20119;-57
2021/06/17 08:10:45;;;;;;;1.42;0.62;;;27.80;91.40;;;;;;4433449;32;20454;-57
2021/06/17 08:13:10;;;;;;;2.10;0.85;;;28.00;91.20;;;;;;4433480;32;20073;-58
2021/06/17 08:15:37;;;;;;;0.40;0.40;;;28.10;90.80;;;;;;4437503;32;20372;-55
2021/06/17 08:18:03;;;;;;;0.45;0.45;;;28.20;90.40;;;;;;4436272;32;20060;-58
2021/06/17 08:20:29;;;;;;;1.25;0.70;;;28.10;90.20;;;;;;4438846;32;20144;-57
2021/06/17 08:22:54;;;;;;;0.40;0.40;;;28.10;89.40;;;;;;4439114;32;20576;-58
2021/06/17 08:25:20;;;;;;;0.55;0.45;;;28.10;88.90;;;;;;4437964;32;20072;-58
2021/06/17 08:27:45;;;;;;;1.30;0.93;;;28.30;89.10;;;;;;4438445;32;20065;-58
2021/06/17 08:30:14;;;;;;;0.70;0.70;;;28.50;88.00;;;;;;4441051;32;20530;-57
2021/06/17 08:32:40;;;;;;;1.10;0.52;;;28.60;87.50;;;;;;4436884;32;20139;-58
2021/06/17 08:35:06;;;;;;;0.52;0.52;;;28.70;85.90;;;;;;4436903;32;20415;-58
2021/06/17 08:37:32;;;;;;;1.27;0.88;;;28.70;85.50;;;;;;4441652;32;20476;-56
2021/06/17 08:39:58;;;;;;;0.57;0.57;;;28.70;85.60;;;;;;4441133;32;20119;-57
2021/06/17 08:42:26;;;;;;;0.60;0.60;;;28.60;85.40;;;;;;4439575;32;20065;-56
2021/06/17 08:44:53;;;;;;;1.50;0.65;;;28.60;85.00;;;;;;4437611;32;20089;-58
2021/06/17 08:47:19;;;;;;;0.40;0.40;;;28.70;85.40;;;;;;4440065;32;20558;-57
2021/06/17 08:49:45;;;;;;;1.00;0.77;;;28.80;84.50;;;;;;4429253;32;20168;-59
2021/06/17 08:52:12;;;;;;;0.95;0.62;;;28.70;84.50;;;;;;4425973;32;21144;-58
2021/06/17 08:54:38;;;;;;;0.82;0.82;;;28.60;84.30;;;;;;4428784;32;20093;-58
2021/06/17 08:57:04;;;;;;;0.80;0.57;;;28.70;83.70;;;;;;4428436;32;20080;-57
2021/06/17 08:59:34;;;;;;;0.90;0.62;;;28.90;84.00;;;;;;4427639;32;20080;-57
2021/06/17 09:02:00;;;;;;;2.62;1.10;;;28.90;83.50;;;;;;4426343;32;20065;-58
2021/06/17 09:04:27;;;;;;;0.85;0.70;;;29.10;82.90;;;;;;4430471;32;20478;-58
2021/06/17 09:07:02;;;;;;;0.37;0.37;;;28.90;83.00;;;;;;4424324;32;20152;-59
2021/06/17 09:09:33;;;;;;;0.40;0.40;;;29.10;82.30;;;;;;4429994;32;20193;-56
2021/06/17 09:11:59;;;;;;;1.27;0.98;;;29.10;82.00;;;;;;4425578;32;20150;-57
2021/06/17 09:14:28;;;;;;;0.60;0.60;;;29.20;81.30;;;;;;4431831;32;20512;-57
2021/06/17 09:17:00;;;;;;;0.60;0.60;;;29.50;82.90;;;;;;4432565;32;20105;-57
2021/06/17 09:19:35;;;;;;;0.40;0.40;;;29.70;80.90;;;;;;4415919;32;20074;-57
2021/06/17 09:22:01;;;;;;;5.07;0.62;;;29.90;78.80;;;;;;4414383;32;20411;-58
2021/06/17 09:24:30;;;;;;;0.90;0.77;;;29.90;77.40;;;;;;4426925;32;20124;-58
2021/06/17 09:27:38;;;;;;;0.57;0.37;;;29.90;78.30;;;;;;4428591;32;20191;-58
2021/06/17 09:30:16;;;;;;;0.62;0.60;;;30.00;76.20;;;;;;4428653;32;20177;-59
2021/06/17 09:32:48;;;;;;;0.55;0.55;;;30.10;76.30;;;;;;4424645;32;20571;-57
2021/06/17 09:35:16;;;;;;;3.50;0.50;;;30.30;75.10;;;;;;4424949;32;20076;-58
2021/06/17 09:37:41;;;;;;;0.15;0.15;;;30.30;74.90;;;;;;4429251;32;20463;-58
2021/06/17 09:40:28;;;;;;;0.30;0.30;;;30.40;74.10;;;;;;4425519;32;74263;-58
2021/06/17 09:43:14;;;;;;;5.72;1.10;;;30.40;74.00;;;;;;4425111;32;20065;-58
2021/06/17 09:45:41;;;;;;;0.45;0.45;;;30.50;74.40;;;;;;4426829;32;20084;-59
2021/06/17 09:48:28;;;;;;;0.45;0.40;;;30.60;74.90;;;;;;4430763;32;20152;-59
2021/06/17 09:50:54;;;;;;;0.28;0.28;;;30.70;74.40;;;;;;4431754;32;20158;-59
2021/06/17 09:53:25;;;;;;;0.47;0.47;;;30.90;75.10;;;;;;4430099;32;20065;-58
2021/06/17 09:55:50;;;;;;;2.75;0.60;;;31.20;74.40;;;;;;4432621;32;20529;-58
2021/06/17 09:58:35;;;;;;;0.30;0.30;;;31.50;70.90;;;;;;4426108;32;20169;-59
2021/06/17 10:01:01;;;;;;;1.35;0.50;;;31.80;70.60;;;;;;4423052;32;20492;-59
2021/06/17 10:03:28;;;;;;;0.45;0.45;;;31.80;70.40;;;;;;4434613;32;20085;-60
2021/06/17 10:05:55;;;;;;;0.15;0.15;;;31.80;69.10;;;;;;4440418;32;20105;-58
2021/06/17 10:08:20;;;;;;;1.75;0.57;;;31.80;69.40;;;;;;4432586;32;20096;-58
2021/06/17 10:10:46;;;;;;;0.47;0.32;;;31.90;65.60;;;;;;4438289;32;20061;-59
2021/06/17 10:13:14;;;;;;;8.38;1.08;;;31.90;66.70;;;;;;4429267;32;20134;-55
2021/06/17 10:15:41;;;;;;;0.22;0.22;;;32.00;65.80;;;;;;4436926;32;20077;-58
2021/06/17 10:18:07;;;;;;;0.40;0.35;;;32.00;65.30;;;;;;4425591;32;20084;-58
2021/06/17 10:20:33;;;;;;;0.70;0.52;;;32.10;65.60;;;;;;4429627;32;20146;-58
2021/06/17 10:22:58;;;;;;;0.30;0.30;;;32.10;66.00;;;;;;4426013;32;20079;-58
2021/06/17 10:25:27;;;;;;;0.32;0.25;;;32.20;65.20;;;;;;4430965;32;20576;-57
2021/06/17 10:28:02;;;;;;;0.25;0.25;;;32.20;65.00;;;;;;4428237;32;20603;-59
2021/06/17 10:30:46;;;;;;;0.30;0.30;;;32.40;64.50;;;;;;4432492;32;20108;-58
2021/06/17 10:33:34;;;;;;;1.12;0.90;;;32.60;65.10;;;;;;4426015;32;20078;-57
2021/06/17 10:36:22;;;;;;;0.20;0.20;;;32.50;62.80;;;;;;4425661;32;20069;-54
2021/06/17 10:39:10;;;;;;;1.35;0.40;;;32.70;62.80;;;;;;4430715;32;20081;-58
2021/06/17 10:41:57;;;;;;;0.45;0.32;;;32.60;63.00;;;;;;4430045;32;20090;-59
2021/06/17 10:44:45;;;;;;;1.02;0.25;;;33.00;62.00;;;;;;4435436;32;20123;-56
2021/06/17 10:50:09;;;;;;;0.88;0.57;;;33.70;60.00;;;;;;4426189;32;20100;-59
2021/06/17 10:52:35;;;;;;;0.22;0.17;;;33.90;58.80;;;;;;4426256;32;20585;-59
2021/06/17 10:55:12;;;;;;;0.17;0.17;;;33.90;58.90;;;;;;4429331;32;20085;-57
2021/06/17 10:57:49;;;;;;;2.05;0.73;;;33.50;58.20;;;;;;4429420;32;20057;-58
2021/06/17 11:00:25;;;;;;;0.20;0.20;;;33.80;56.90;;;;;;4429732;32;20350;-58
2021/06/17 11:02:56;;;;;;;0.62;0.45;;;33.90;57.00;;;;;;4427313;32;20053;-56
2021/06/17 11:05:31;;;;;;;0.40;0.40;;;34.50;56.70;;;;;;4427315;32;20513;-54
2021/06/17 11:08:21;;;;;;;0.20;0.20;;;34.60;55.60;;;;;;4430134;32;20065;-57
2021/06/17 11:11:05;;;;;;;0.80;0.60;;;34.60;56.00;;;;;;4428825;32;20072;-57
2021/06/17 11:13:37;;;;;;;0.13;0.13;;;34.70;56.30;;;;;;4426383;32;20052;-57
2021/06/17 11:16:06;;;;;;;0.30;0.30;;;34.90;55.20;;;;;;4429042;32;20156;-57
2021/06/17 11:18:53;;;;;;;2.87;1.20;;;35.00;53.50;;;;;;4430605;32;20120;-59
2021/06/17 11:21:26;;;;;;;0.20;0.20;;;34.40;53.60;;;;;;4426989;32;20104;-58
2021/06/17 11:23:54;;;;;;;1.75;0.65;;;34.40;54.60;;;;;;4426972;32;20093;-58
2021/06/17 11:26:41;;;;;;;0.10;0.10;;;35.00;54.90;;;;;;4426078;32;20588;-58
2021/06/17 11:29:08;;;;;;;0.03;0.03;;;35.50;53.70;;;;;;4409260;32;20510;-59
2021/06/17 11:31:36;;;;;;;0.30;0.30;;;35.80;53.90;;;;;;4425992;32;20061;-58
2021/06/17 11:34:02;;;;;;;0.30;0.30;;;35.80;52.80;;;;;;4427164;32;20115;-58
2021/06/17 11:36:28;;;;;;;0.40;0.30;;;35.90;53.40;;;;;;4428858;32;20065;-59
2021/06/17 11:38:53;;;;;;;0.30;0.30;;;36.10;52.30;;;;;;4427564;32;20061;-59
2021/06/17 11:41:22;;;;;;;0.30;0.30;;;36.10;50.80;;;;;;4427505;32;20151;-57
2021/06/17 11:43:54;;;;;;;0.20;0.20;;;35.80;51.50;;;;;;4427620;32;20473;-59
2021/06/17 11:46:22;;;;;;;0.13;0.13;;;35.80;52.80;;;;;;4430165;32;20069;-57
2021/06/17 11:48:58;;;;;;;4.45;0.57;;;36.40;51.60;;;;;;4424561;32;20098;-58
2021/06/17 11:51:24;;;;;;;1.15;0.60;;;36.70;52.20;;;;;;4416799;32;20384;-55
2021/06/17 11:53:55;;;;;;;0.47;0.47;;;37.10;51.60;;;;;;4431029;32;20100;-55
2021/06/17 11:56:26;;;;;;;23.25;1.15;;;37.20;50.40;;;;;;4430170;32;20077;-58
2021/06/17 11:58:51;;;;;;;0.70;0.20;;;37.40;50.90;;;;;;4429367;32;20069;-59
2021/06/17 12:01:17;;;;;;;0.32;0.32;;;38.00;50.10;;;;;;4430708;32;20142;-59
2021/06/17 12:04:01;;;;;;;0.73;0.30;;;38.00;50.10;;;;;;4424742;32;20115;-57
2021/06/17 12:06:27;;;;;;;0.30;0.30;;;37.70;49.00;;;;;;4427513;32;20069;-58
2021/06/17 12:09:07;;;;;;;0.30;0.30;;;37.70;49.50;;;;;;4423365;32;20223;-58
2021/06/17 12:11:34;;;;;;;1.17;0.73;;;37.70;49.80;;;;;;4432668;32;20484;-58
2021/06/17 12:14:01;;;;;;;0.20;0.20;;;38.10;50.10;;;;;;4429133;32;20100;-58
2021/06/17 12:16:27;;;;;;;0.90;0.70;;;38.40;49.10;;;;;;4428718;32;20097;-60
2021/06/17 12:18:52;;;;;;;0.40;0.40;;;38.40;49.30;;;;;;4428187;32;20106;-59
2021/06/17 12:21:28;;;;;;;0.50;0.50;;;38.60;49.60;;;;;;4429886;32;20072;-59
2021/06/17 12:23:55;;;;;;;2.08;1.33;;;38.70;49.20;;;;;;4427123;32;20081;-59
2021/06/17 12:26:27;;;;;;;0.25;0.25;;;38.50;49.30;;;;;;4430013;32;20134;-59
2021/06/17 12:28:57;;;;;;;0.20;0.20;;;38.10;49.00;;;;;;4427930;32;20189;-58
2021/06/17 12:31:33;;;;;;;0.25;0.25;;;37.90;49.20;;;;;;4427019;32;20072;-59
2021/06/17 12:34:09;;;;;;;0.68;0.68;;;38.10;48.80;;;;;;4425541;32;20096;-59
2021/06/17 12:36:35;;;;;;;15.13;0.80;;;38.50;48.00;;;;;;4440874;32;20081;-57
2021/06/17 12:39:11;;;;;;;3.75;0.40;;;38.70;47.80;;;;;;4438094;32;20065;-59
2021/06/17 12:41:42;;;;;;;0.20;0.20;;;38.90;48.10;;;;;;4444751;32;20082;-57
2021/06/17 12:44:08;;;;;;;0.20;0.20;;;39.50;46.50;;;;;;4436791;32;20060;-58
2021/06/17 12:46:38;;;;;;;0.40;0.40;;;39.80;45.90;;;;;;4437603;32;20093;-59
2021/06/17 12:52:16;;;;;;;0.30;0.30;;;39.40;47.10;;;;;;4436215;32;20134;-59
2021/06/17 12:54:36;;;;;;;0.25;0.25;;;39.70;46.50;;;;;;4439236;32;20553;-58
2021/06/17 12:57:12;;;;;;;0.20;0.20;;;39.20;46.10;;;;;;4428843;32;20153;-59
2021/06/17 12:59:45;;;;;;;2.00;0.52;;;39.00;47.10;;;;;;4439109;32;20085;-59
2021/06/17 13:02:13;;;;;;;0.62;0.43;;;39.30;46.90;;;;;;4435476;32;20089;-59